createdAt,value
2022-12-09T00:01:38.293Z,5.99
2022-12-09T00:04:06.422Z,5.90
2022-12-09T00:06:34.435Z,5.99
2022-12-09T00:09:02.547Z,6.02
2022-12-09T00:11:30.745Z,6.22
2022-12-09T00:13:59.751Z,6.36
2022-12-09T00:16:27.899Z,6.38
2022-12-09T00:18:57.871Z,6.24
2022-12-09T00:21:28.658Z,6.39
2022-12-09T00:23:58.129Z,6.48
2022-12-09T00:26:27.763Z,6.32
2022-12-09T00:28:56.842Z,6.43
2022-12-09T00:31:26.365Z,6.37
2022-12-09T00:33:56.452Z,6.30
2022-12-09T00:36:25.746Z,6.27
2022-12-09T00:38:54.693Z,6.35
2022-12-09T00:41:23.071Z,6.38
2022-12-09T00:43:51.609Z,6.29
2022-12-09T00:46:19.801Z,6.51
2022-12-09T00:48:47.787Z,6.51
2022-12-09T00:51:17.729Z,6.66
2022-12-09T00:53:47.449Z,6.72
2022-12-09T00:56:15.384Z,6.73
2022-12-09T00:58:43.320Z,6.82
2022-12-09T01:01:11.269Z,6.74
2022-12-09T01:03:40.119Z,6.81
2022-12-09T01:06:11.879Z,6.67
2022-12-09T01:08:40.234Z,6.65
2022-12-09T01:11:14.398Z,6.53
2022-12-09T01:13:42.373Z,6.56
2022-12-09T01:16:16.038Z,6.52
2022-12-09T01:18:44.141Z,6.64
2022-12-09T01:21:12.129Z,6.72
2022-12-09T01:23:41.798Z,6.83
2022-12-09T01:26:09.993Z,6.89
2022-12-09T01:28:40.918Z,6.72
2022-12-09T01:31:10.169Z,6.54
2022-12-09T01:33:38.341Z,6.26
2022-12-09T01:36:07.487Z,5.94
2022-12-09T01:38:35.794Z,5.87
2022-12-09T01:41:03.889Z,5.88
2022-12-09T01:43:31.807Z,5.76
2022-12-09T01:46:01.665Z,5.57
2022-12-09T01:48:32.244Z,5.53
2022-12-09T01:51:03.510Z,5.98
2022-12-09T01:53:33.871Z,5.82
2022-12-09T01:56:09.516Z,5.67
2022-12-09T01:58:37.565Z,5.40
2022-12-09T02:01:07.240Z,5.44
2022-12-09T02:03:35.568Z,5.44
2022-12-09T02:06:03.930Z,5.45
2022-12-09T02:08:32.443Z,5.07
2022-12-09T02:11:06.901Z,5.27
2022-12-09T02:13:45.554Z,5.57
2022-12-09T02:16:18.718Z,5.63
2022-12-09T02:18:52.428Z,5.94
2022-12-09T02:21:24.497Z,6.24
2022-12-09T02:23:57.148Z,6.44
2022-12-09T02:26:29.124Z,6.50
2022-12-09T02:29:09.730Z,6.65
2022-12-09T02:31:54.187Z,6.82
2022-12-09T02:34:24.598Z,6.90
2022-12-09T02:37:04.976Z,6.85
2022-12-09T02:39:39.979Z,6.94
2022-12-09T02:42:09.989Z,6.95
2022-12-09T02:44:40.093Z,7.04
2022-12-09T02:47:12.591Z,7.02
2022-12-09T02:49:42.822Z,7.03
2022-12-09T02:52:12.223Z,6.92
2022-12-09T02:54:40.941Z,6.92
2022-12-09T02:57:14.061Z,6.94
2022-12-09T02:59:42.640Z,7.09
2022-12-09T03:02:18.803Z,6.97
2022-12-09T03:04:50.958Z,6.87
2022-12-09T03:07:24.708Z,6.95
2022-12-09T03:10:00.521Z,7.12
2022-12-09T03:12:29.934Z,7.13
2022-12-09T03:14:59.197Z,7.03
2022-12-09T03:17:31.860Z,6.99
2022-12-09T03:20:05.959Z,7.07
2022-12-09T03:22:36.427Z,7.22
2022-12-09T03:25:07.004Z,7.21
2022-12-09T03:27:39.986Z,6.94
2022-12-09T03:30:10.513Z,7.00
2022-12-09T03:32:39.624Z,6.99
2022-12-09T03:35:12.637Z,7.03
2022-12-09T03:37:42.976Z,7.06
2022-12-09T03:40:14.516Z,7.06
2022-12-09T03:42:47.337Z,7.25
2022-12-09T03:45:17.007Z,7.34
2022-12-09T03:47:45.267Z,7.21
2022-12-09T03:50:16.542Z,7.16
2022-12-09T03:52:46.675Z,7.21
2022-12-09T03:55:20.543Z,7.10
2022-12-09T03:57:51.520Z,7.19
2022-12-09T04:00:20.377Z,7.12
2022-12-09T04:02:48.639Z,6.91
2022-12-09T04:05:18.337Z,6.84
2022-12-09T04:07:46.404Z,6.81
2022-12-09T04:10:14.961Z,6.87
2022-12-09T04:12:42.861Z,6.73
2022-12-09T04:15:11.148Z,6.88
2022-12-09T04:17:39.316Z,6.77
2022-12-09T04:20:09.225Z,6.69
2022-12-09T04:22:38.862Z,6.64
2022-12-09T04:25:07.724Z,6.77
2022-12-09T04:27:35.750Z,6.76
2022-12-09T04:30:04.001Z,6.66
2022-12-09T04:32:33.700Z,6.58
2022-12-09T04:35:02.221Z,6.65
2022-12-09T04:37:30.276Z,6.75
2022-12-09T04:39:59.642Z,6.77
2022-12-09T04:42:29.763Z,6.81
2022-12-09T04:44:57.891Z,6.92
2022-12-09T04:47:25.845Z,6.91
2022-12-09T04:49:54.304Z,6.78
2022-12-09T04:52:22.246Z,6.91
2022-12-09T04:54:50.947Z,6.78
2022-12-09T04:57:20.800Z,6.79
2022-12-09T04:59:49.432Z,6.84
2022-12-09T05:02:17.664Z,6.70
2022-12-09T05:04:46.996Z,6.71
2022-12-09T05:07:15.486Z,6.65
2022-12-09T05:09:43.836Z,6.71
2022-12-09T05:12:12.068Z,6.66
2022-12-09T05:14:41.694Z,6.60
2022-12-09T05:17:09.651Z,6.63
2022-12-09T05:19:38.351Z,6.69
2022-12-09T05:22:06.470Z,6.68
2022-12-09T05:24:34.459Z,6.65
2022-12-09T05:27:02.772Z,6.69
2022-12-09T05:29:31.000Z,6.69
2022-12-09T05:32:00.397Z,6.70
2022-12-09T05:34:28.697Z,6.68
2022-12-09T05:36:57.294Z,6.50
2022-12-09T05:39:25.700Z,6.55
2022-12-09T05:41:53.896Z,6.57
2022-12-09T05:44:22.027Z,6.54
2022-12-09T05:46:50.038Z,6.53
2022-12-09T05:49:19.526Z,6.51
2022-12-09T05:51:47.886Z,6.55
2022-12-09T05:54:15.907Z,6.39
2022-12-09T05:56:48.126Z,6.29
2022-12-09T05:59:16.973Z,6.25
2022-12-09T06:01:45.182Z,6.49
2022-12-09T06:04:13.247Z,6.64
2022-12-09T06:06:43.295Z,6.72
2022-12-09T06:09:12.170Z,6.75
2022-12-09T06:11:41.196Z,6.80
2022-12-09T06:14:11.329Z,6.87
2022-12-09T06:16:39.974Z,6.84
2022-12-09T06:19:08.400Z,6.92
2022-12-09T06:21:36.552Z,7.08
2022-12-09T06:24:08.068Z,6.86
2022-12-09T06:26:36.276Z,6.94
2022-12-09T06:29:04.866Z,6.90
2022-12-09T06:31:33.417Z,6.96
2022-12-09T06:34:02.313Z,6.92
2022-12-09T06:36:32.101Z,6.95
2022-12-09T06:39:07.639Z,7.05
2022-12-09T06:41:40.800Z,6.96
2022-12-09T06:44:09.127Z,7.06
2022-12-09T06:46:37.569Z,6.91
2022-12-09T06:49:05.819Z,7.01
2022-12-09T06:51:34.475Z,6.96
2022-12-09T06:54:02.444Z,6.90
2022-12-09T06:56:32.665Z,6.81
2022-12-09T06:59:02.197Z,6.82
2022-12-09T07:01:30.102Z,6.63
2022-12-09T07:03:58.521Z,6.72
2022-12-09T07:06:28.731Z,6.91
2022-12-09T07:08:58.468Z,6.97
2022-12-09T07:11:27.209Z,7.05
2022-12-09T07:13:55.571Z,6.88
2022-12-09T07:16:25.675Z,6.88
2022-12-09T07:18:54.019Z,6.92
2022-12-09T07:21:24.026Z,6.90
2022-12-09T07:23:52.548Z,6.96
2022-12-09T07:26:21.440Z,7.02
2022-12-09T07:28:50.576Z,6.96
2022-12-09T07:31:21.163Z,7.02
2022-12-09T07:33:51.596Z,7.14
2022-12-09T07:36:21.507Z,7.11
2022-12-09T07:38:50.498Z,6.86
2022-12-09T07:41:19.408Z,6.88
2022-12-09T07:43:48.197Z,6.83
2022-12-09T07:46:18.200Z,6.90
2022-12-09T07:48:47.157Z,6.87
2022-12-09T07:51:17.137Z,6.89
2022-12-09T07:53:45.410Z,6.86
2022-12-09T07:56:14.811Z,6.92
2022-12-09T07:58:43.926Z,6.88
2022-12-09T08:01:14.153Z,7.04
2022-12-09T08:03:42.772Z,7.06
2022-12-09T08:06:14.004Z,7.12
2022-12-09T08:08:44.266Z,7.05
2022-12-09T08:11:14.623Z,6.96
2022-12-09T08:13:43.159Z,6.97
2022-12-09T08:16:13.420Z,6.98
2022-12-09T08:18:42.961Z,6.93
2022-12-09T08:21:13.254Z,6.89
2022-12-09T08:23:43.442Z,6.96
2022-12-09T08:26:12.714Z,7.02
2022-12-09T08:28:41.193Z,7.10
2022-12-09T08:31:10.347Z,7.19
2022-12-09T08:33:38.989Z,7.41
2022-12-09T08:36:13.183Z,7.38
2022-12-09T08:38:41.401Z,7.33
2022-12-09T08:41:12.633Z,7.25
2022-12-09T08:43:41.359Z,7.24
2022-12-09T08:46:09.560Z,7.24
2022-12-09T08:48:38.085Z,7.09
2022-12-09T08:51:07.876Z,7.03
2022-12-09T08:53:35.926Z,6.84
2022-12-09T08:56:11.141Z,6.87
2022-12-09T08:58:39.513Z,6.86
2022-12-09T09:01:08.053Z,6.87
2022-12-09T09:03:36.462Z,6.95
2022-12-09T09:06:09.539Z,7.10
2022-12-09T09:08:39.238Z,7.20
2022-12-09T09:11:12.367Z,7.32
2022-12-09T09:13:41.635Z,7.29
2022-12-09T09:16:11.786Z,7.51
2022-12-09T09:18:41.011Z,7.54
2022-12-09T09:21:10.561Z,7.65
2022-12-09T09:23:38.871Z,7.71
2022-12-09T09:26:13.137Z,7.74
2022-12-09T09:28:41.871Z,7.77
2022-12-09T09:31:12.503Z,7.89
2022-12-09T09:33:40.722Z,7.83
2022-12-09T09:36:11.676Z,7.80
2022-12-09T09:38:40.244Z,7.93
2022-12-09T09:41:16.627Z,7.85
2022-12-09T09:43:46.527Z,7.71
2022-12-09T09:46:18.340Z,7.68
2022-12-09T09:48:47.795Z,7.78
2022-12-09T09:51:18.472Z,7.75
2022-12-09T09:53:46.772Z,7.55
2022-12-09T09:56:21.881Z,7.74
2022-12-09T09:58:57.437Z,7.91
2022-12-09T10:01:28.822Z,8.10
2022-12-09T10:04:00.603Z,8.29
2022-12-09T10:06:39.248Z,8.15
2022-12-09T10:09:14.501Z,8.61
2022-12-09T10:11:54.924Z,8.83
2022-12-09T10:14:34.060Z,9.03
2022-12-09T10:17:08.458Z,9.35
2022-12-09T10:19:37.803Z,9.30
2022-12-09T10:22:13.524Z,9.09
2022-12-09T10:24:47.718Z,9.03
2022-12-09T10:27:21.953Z,9.19
2022-12-09T10:29:57.703Z,9.48
2022-12-09T10:32:28.837Z,9.52
2022-12-09T10:34:57.149Z,9.32
2022-12-09T10:37:29.906Z,9.32
2022-12-09T10:40:16.417Z,9.61
2022-12-09T10:43:05.687Z,10.63
2022-12-09T10:46:15.159Z,10.67
2022-12-09T10:48:33.033Z,11.95
2022-12-09T10:51:04.273Z,12.28
2022-12-09T10:53:33.869Z,11.88
2022-12-09T10:56:02.781Z,11.33
2022-12-09T10:58:32.580Z,11.63
2022-12-09T11:01:06.185Z,11.58
2022-12-09T11:03:36.636Z,13.34
2022-12-09T11:06:16.491Z,14.79
2022-12-09T11:08:51.726Z,16.49
2022-12-09T11:11:20.682Z,16.43
2022-12-09T11:13:48.878Z,17.67
2022-12-09T11:16:18.190Z,17.75
2022-12-09T11:18:48.363Z,15.75
2022-12-09T11:21:35.012Z,13.42
2022-12-09T11:24:04.861Z,11.68
2022-12-09T11:26:36.650Z,10.81
2022-12-09T11:29:07.544Z,10.29
2022-12-09T11:31:41.173Z,9.72
2022-12-09T11:34:17.746Z,9.60
2022-12-09T11:36:49.451Z,8.94
2022-12-09T11:39:29.404Z,8.93
2022-12-09T11:42:19.456Z,8.59
2022-12-09T11:44:56.551Z,8.40
2022-12-09T11:47:50.260Z,8.59
2022-12-09T11:50:23.888Z,9.01
2022-12-09T11:53:08.099Z,9.03
2022-12-09T11:55:37.531Z,9.00
2022-12-09T11:58:07.671Z,8.92
2022-12-09T12:00:39.278Z,9.12
2022-12-09T12:03:15.376Z,8.93
2022-12-09T12:05:45.150Z,8.99
2022-12-09T12:08:19.572Z,8.88
2022-12-09T12:10:52.600Z,8.41
2022-12-09T12:13:23.611Z,8.63
2022-12-09T12:15:55.080Z,8.71
2022-12-09T12:18:24.503Z,9.09
2022-12-09T12:21:22.945Z,9.06
2022-12-09T12:24:15.676Z,8.96
2022-12-09T12:26:50.828Z,8.89
2022-12-09T12:29:26.424Z,8.79
2022-12-09T12:32:13.981Z,8.55
2022-12-09T12:34:49.990Z,8.37
2022-12-09T12:37:29.103Z,8.49
2022-12-09T12:40:04.562Z,8.42
2022-12-09T12:42:40.542Z,8.44
2022-12-09T12:45:32.922Z,8.33
2022-12-09T12:48:03.642Z,8.31
2022-12-09T12:50:44.763Z,8.23
2022-12-09T12:53:23.384Z,8.07
2022-12-09T12:55:58.122Z,8.04
2022-12-09T12:58:39.991Z,8.14
2022-12-09T13:01:15.593Z,8.04
2022-12-09T13:03:51.972Z,8.08
2022-12-09T13:06:36.830Z,8.09
2022-12-09T13:09:10.474Z,8.05
2022-12-09T13:11:46.179Z,8.02
2022-12-09T13:14:17.129Z,8.03
2022-12-09T13:16:45.976Z,8.01
2022-12-09T13:19:17.327Z,7.90
2022-12-09T13:21:47.058Z,7.91
2022-12-09T13:24:21.769Z,8.04
2022-12-09T13:26:53.385Z,7.84
2022-12-09T13:29:38.482Z,8.29
2022-12-09T13:32:20.290Z,8.45
2022-12-09T13:34:51.511Z,7.78
2022-12-09T13:38:00.748Z,7.87
2022-12-09T13:40:32.449Z,8.09
2022-12-09T13:43:13.511Z,7.98
2022-12-09T13:45:50.685Z,7.55
2022-12-09T13:48:44.396Z,7.69
2022-12-09T13:51:12.473Z,7.69
2022-12-09T13:53:46.456Z,7.76
2022-12-09T13:56:22.709Z,7.25
2022-12-09T13:59:43.946Z,7.02
2022-12-09T14:02:23.278Z,6.41
2022-12-09T14:05:00.034Z,6.38
2022-12-09T14:07:33.712Z,6.60
2022-12-09T14:10:03.404Z,6.25
2022-12-09T14:13:03.684Z,6.17
2022-12-09T14:15:37.608Z,6.13
2022-12-09T14:18:16.316Z,5.77
2022-12-09T14:20:44.163Z,5.83
2022-12-09T14:23:19.308Z,6.07
2022-12-09T14:26:09.097Z,6.07
2022-12-09T14:28:42.077Z,5.60
2022-12-09T14:31:10.284Z,5.42
2022-12-09T14:33:39.840Z,5.47
2022-12-09T14:36:20.590Z,5.40
2022-12-09T14:39:22.565Z,4.94
2022-12-09T14:41:47.438Z,4.52
2022-12-09T14:44:22.482Z,5.06
2022-12-09T14:46:54.380Z,5.27
2022-12-09T14:49:24.922Z,5.19
2022-12-09T14:51:55.434Z,5.32
2022-12-09T14:54:25.086Z,5.25
2022-12-09T14:56:57.600Z,5.26
2022-12-09T14:59:27.008Z,5.42
2022-12-09T15:01:57.188Z,5.37
2022-12-09T15:04:29.965Z,5.29
2022-12-09T15:07:16.426Z,5.19
2022-12-09T15:09:55.815Z,5.12
2022-12-09T15:12:27.844Z,5.23
2022-12-09T15:14:58.668Z,5.18
2022-12-09T15:17:29.083Z,5.11
2022-12-09T15:20:00.625Z,5.19
2022-12-09T15:22:40.036Z,5.14
2022-12-09T15:25:17.851Z,5.09
2022-12-09T15:27:56.354Z,5.07
2022-12-09T15:30:26.337Z,5.12
2022-12-09T15:32:54.285Z,4.91
2022-12-09T15:35:24.962Z,4.97
2022-12-09T15:37:54.020Z,4.87
2022-12-09T15:40:23.032Z,4.91
2022-12-09T15:42:53.959Z,4.92
2022-12-09T15:45:23.785Z,5.21
2022-12-09T15:47:54.219Z,5.31
2022-12-09T15:50:24.229Z,5.34
2022-12-09T15:52:53.380Z,5.41
2022-12-09T15:55:23.623Z,5.47
2022-12-09T15:57:54.555Z,5.21
2022-12-09T16:00:22.648Z,4.66
2022-12-09T16:02:51.119Z,4.91
2022-12-09T16:05:24.024Z,4.99
2022-12-09T16:07:57.278Z,5.25
2022-12-09T16:10:27.017Z,5.34
2022-12-09T16:13:08.922Z,5.38
2022-12-09T16:15:47.033Z,5.31
2022-12-09T16:18:18.808Z,5.24
2022-12-09T16:20:57.767Z,5.27
2022-12-09T16:23:26.874Z,5.27
2022-12-09T16:26:04.795Z,5.29
2022-12-09T16:28:36.116Z,5.29
2022-12-09T16:31:18.385Z,5.15
2022-12-09T16:33:48.876Z,5.11
2022-12-09T16:36:19.721Z,5.26
2022-12-09T16:39:05.397Z,5.16
2022-12-09T16:42:01.612Z,5.29
2022-12-09T16:44:34.925Z,5.18
2022-12-09T16:47:14.774Z,5.28
2022-12-09T16:49:44.178Z,5.34
2022-12-09T16:52:14.290Z,5.29
2022-12-09T16:54:43.647Z,5.17
2022-12-09T16:57:15.643Z,5.26
2022-12-09T16:59:44.018Z,5.22
2022-12-09T17:02:20.093Z,5.25
2022-12-09T17:04:49.012Z,5.22
2022-12-09T17:07:16.846Z,5.43
2022-12-09T17:09:44.732Z,5.41
2022-12-09T17:12:13.954Z,5.23
2022-12-09T17:14:41.890Z,5.29
2022-12-09T17:17:09.955Z,5.29
2022-12-09T17:19:38.502Z,5.40
2022-12-09T17:22:06.410Z,5.53
2022-12-09T17:24:34.300Z,5.54
2022-12-09T17:27:02.196Z,5.58
2022-12-09T17:29:31.480Z,5.54
2022-12-09T17:31:59.361Z,5.55
2022-12-09T17:34:27.581Z,5.52
2022-12-09T17:36:56.055Z,5.64
2022-12-09T17:39:24.727Z,5.60
2022-12-09T17:41:52.671Z,5.66
2022-12-09T17:44:21.319Z,5.59
2022-12-09T17:46:51.032Z,5.64
2022-12-09T17:49:19.062Z,5.60
2022-12-09T17:51:47.226Z,5.62
2022-12-09T17:54:15.103Z,5.59
2022-12-09T17:56:43.005Z,5.59
2022-12-09T17:59:16.778Z,5.63
2022-12-09T18:01:46.230Z,5.57
2022-12-09T18:04:15.965Z,5.59
2022-12-09T18:06:44.861Z,5.63
2022-12-09T18:09:14.516Z,5.60
2022-12-09T18:11:42.795Z,5.52
2022-12-09T18:14:10.901Z,5.55
2022-12-09T18:16:38.889Z,5.69
2022-12-09T18:19:09.853Z,5.62
2022-12-09T18:21:39.347Z,5.38
2022-12-09T18:24:07.695Z,5.26
2022-12-09T18:26:41.374Z,5.26
2022-12-09T18:29:09.975Z,5.29
2022-12-09T18:31:37.756Z,5.44
2022-12-09T18:34:05.577Z,5.42
2022-12-09T18:36:33.366Z,5.36
2022-12-09T18:39:02.510Z,5.31
2022-12-09T18:41:31.758Z,5.33
2022-12-09T18:44:06.120Z,5.23
2022-12-09T18:46:36.220Z,5.28
2022-12-09T18:49:07.203Z,5.21
2022-12-09T18:51:35.574Z,5.17
2022-12-09T18:54:05.496Z,5.15
2022-12-09T18:56:34.144Z,5.06
2022-12-09T18:59:07.051Z,4.80
2022-12-09T19:01:39.016Z,4.83
2022-12-09T19:04:08.583Z,4.74
2022-12-09T19:06:37.714Z,4.41
2022-12-09T19:09:08.921Z,4.34
2022-12-09T19:11:38.086Z,4.46
2022-12-09T19:14:07.008Z,4.22
2022-12-09T19:16:35.075Z,4.38
2022-12-09T19:19:09.215Z,4.43
2022-12-09T19:21:38.096Z,4.15
2022-12-09T19:24:08.497Z,4.28
2022-12-09T19:26:37.417Z,4.26
2022-12-09T19:29:06.617Z,4.18
2022-12-09T19:31:37.323Z,4.18
2022-12-09T19:34:06.941Z,4.21
2022-12-09T19:36:35.003Z,4.18
2022-12-09T19:39:03.483Z,4.02
2022-12-09T19:41:33.224Z,3.89
2022-12-09T19:44:02.879Z,3.70
2022-12-09T19:46:30.776Z,3.74
2022-12-09T19:48:59.313Z,3.68
2022-12-09T19:51:27.977Z,3.61
2022-12-09T19:53:56.836Z,3.69
2022-12-09T19:56:24.936Z,3.66
2022-12-09T19:58:54.465Z,3.54
2022-12-09T20:01:23.825Z,3.23
2022-12-09T20:03:52.945Z,3.45
2022-12-09T20:06:21.824Z,3.35
2022-12-09T20:08:50.090Z,3.37
2022-12-09T20:11:20.034Z,3.24
2022-12-09T20:13:48.233Z,3.04
2022-12-09T20:16:19.030Z,3.26
2022-12-09T20:18:48.480Z,3.33
2022-12-09T20:21:17.715Z,3.22
2022-12-09T20:23:46.362Z,3.28
2022-12-09T20:26:15.822Z,3.31
2022-12-09T20:28:45.064Z,3.24
2022-12-09T20:31:14.427Z,3.25
2022-12-09T20:33:43.697Z,3.15
2022-12-09T20:36:13.356Z,3.07
2022-12-09T20:38:41.500Z,3.12
2022-12-09T20:41:11.143Z,3.21
2022-12-09T20:43:40.251Z,3.05
2022-12-09T20:46:09.128Z,3.11
2022-12-09T20:48:37.969Z,2.61
2022-12-09T20:51:08.560Z,2.85
2022-12-09T20:53:37.310Z,2.96
2022-12-09T20:56:05.525Z,2.98
2022-12-09T20:58:33.323Z,2.85
2022-12-09T21:01:05.988Z,2.86
2022-12-09T21:03:33.873Z,2.75
2022-12-09T21:06:01.657Z,2.56
2022-12-09T21:08:31.927Z,2.47
2022-12-09T21:11:04.338Z,2.41
2022-12-09T21:13:32.122Z,2.55
2022-12-09T21:16:07.066Z,2.57
2022-12-09T21:18:35.541Z,2.67
2022-12-09T21:21:03.414Z,2.72
2022-12-09T21:23:34.435Z,2.62
2022-12-09T21:26:06.508Z,2.45
2022-12-09T21:28:34.362Z,2.65
2022-12-09T21:31:08.223Z,2.36
2022-12-09T21:33:36.942Z,2.41
2022-12-09T21:36:06.738Z,2.65
2022-12-09T21:38:37.421Z,2.70
2022-12-09T21:41:06.208Z,2.68
2022-12-09T21:43:34.409Z,2.78
2022-12-09T21:46:03.373Z,2.70
2022-12-09T21:48:32.028Z,2.83
2022-12-09T21:51:01.020Z,2.85
2022-12-09T21:53:29.311Z,2.80
2022-12-09T21:56:03.525Z,2.73
2022-12-09T21:58:32.325Z,2.82
2022-12-09T22:01:00.891Z,2.68
2022-12-09T22:03:28.776Z,2.47
2022-12-09T22:05:58.433Z,2.35
2022-12-09T22:08:27.067Z,2.47
2022-12-09T22:10:54.853Z,2.82
2022-12-09T22:13:24.033Z,2.99
2022-12-09T22:15:51.869Z,3.02
2022-12-09T22:18:19.920Z,3.06
2022-12-09T22:21:23.689Z,3.05
2022-12-09T22:23:35.841Z,2.99
2022-12-09T22:26:06.473Z,3.10
2022-12-09T22:28:36.284Z,3.21
2022-12-09T22:31:10.137Z,3.19
2022-12-09T22:33:37.962Z,3.24
2022-12-09T22:36:06.478Z,3.16
2022-12-09T22:38:34.767Z,3.14
2022-12-09T22:41:04.663Z,3.02
2022-12-09T22:43:37.904Z,3.18
2022-12-09T22:46:09.099Z,3.37
2022-12-09T22:48:37.017Z,3.41
2022-12-09T22:51:05.990Z,3.58
2022-12-09T22:53:34.562Z,3.52
2022-12-09T22:56:02.358Z,3.49
2022-12-09T22:58:30.196Z,3.50
2022-12-09T23:00:58.018Z,3.53
2022-12-09T23:03:27.600Z,3.76
2022-12-09T23:05:56.527Z,3.78
2022-12-09T23:08:24.459Z,3.90
2022-12-09T23:10:52.340Z,3.85
2022-12-09T23:13:20.119Z,3.70
2022-12-09T23:15:47.898Z,3.35
2022-12-09T23:18:15.715Z,3.83
2022-12-09T23:20:44.937Z,3.74
2022-12-09T23:23:12.770Z,3.93
2022-12-09T23:25:41.606Z,4.01
2022-12-09T23:28:11.455Z,3.91
2022-12-09T23:30:39.361Z,3.88
2022-12-09T23:33:07.116Z,4.02
2022-12-09T23:35:38.515Z,3.98
2022-12-09T23:38:07.603Z,3.89
2022-12-09T23:40:35.385Z,3.91
2022-12-09T23:43:03.425Z,4.06
2022-12-09T23:45:31.338Z,4.15
2022-12-09T23:47:59.281Z,4.22
2022-12-09T23:50:27.049Z,4.29
2022-12-09T23:52:54.791Z,4.21
2022-12-09T23:55:23.964Z,4.19
2022-12-09T23:57:51.729Z,4.03
